sensor_id;sensor_type;location;lat;lon;timestamp;temperature;humidity
48860;DHT22;34679;51.436;-2.518;2022-09-09T00:00:21;15.10;99.90
48860;DHT22;34679;51.436;-2.518;2022-09-09T00:03:04;15.10;99.90
48860;DHT22;34679;51.436;-2.518;2022-09-09T00:08:25;15.10;99.90
48860;DHT22;34679;51.436;-2.518;2022-09-09T00:11:00;15.20;99.90
48860;DHT22;34679;51.436;-2.518;2022-09-09T00:13:52;15.20;99.90
48860;DHT22;34679;51.436;-2.518;2022-09-09T00:16:28;15.10;99.90
48860;DHT22;34679;51.436;-2.518;2022-09-09T00:19:23;15.20;99.90
48860;DHT22;34679;51.436;-2.518;2022-09-09T00:22:15;15.20;99.90
48860;DHT22;34679;51.436;-2.518;2022-09-09T00:27:19;15.20;99.90
48860;DHT22;34679;51.436;-2.518;2022-09-09T00:32:28;15.20;99.90
48860;DHT22;34679;51.436;-2.518;2022-09-09T00:34:57;15.30;99.90
48860;DHT22;34679;51.436;-2.518;2022-09-09T00:37:25;15.20;99.90
48860;DHT22;34679;51.436;-2.518;2022-09-09T00:39:53;15.20;99.90
48860;DHT22;34679;51.436;-2.518;2022-09-09T00:42:28;15.20;99.90
48860;DHT22;34679;51.436;-2.518;2022-09-09T00:47:49;15.10;99.90
48860;DHT22;34679;51.436;-2.518;2022-09-09T00:53:20;15.10;99.90
48860;DHT22;34679;51.436;-2.518;2022-09-09T00:58:34;15.10;99.90
48860;DHT22;34679;51.436;-2.518;2022-09-09T01:01:05;15.10;99.90
48860;DHT22;34679;51.436;-2.518;2022-09-09T01:03:42;15.10;99.90
48860;DHT22;34679;51.436;-2.518;2022-09-09T01:11:38;15.00;99.90
48860;DHT22;34679;51.436;-2.518;2022-09-09T01:17:21;15.00;99.90
48860;DHT22;34679;51.436;-2.518;2022-09-09T01:20:05;14.90;99.90
48860;DHT22;34679;51.436;-2.518;2022-09-09T01:23:25;14.90;99.90
48860;DHT22;34679;51.436;-2.518;2022-09-09T01:28:48;14.80;99.90
48860;DHT22;34679;51.436;-2.518;2022-09-09T01:31:38;14.70;99.90
48860;DHT22;34679;51.436;-2.518;2022-09-09T01:34:12;14.70;99.90
48860;DHT22;34679;51.436;-2.518;2022-09-09T01:39:16;14.60;99.90
48860;DHT22;34679;51.436;-2.518;2022-09-09T01:41:42;14.50;99.90
48860;DHT22;34679;51.436;-2.518;2022-09-09T01:44:08;14.50;99.90
48860;DHT22;34679;51.436;-2.518;2022-09-09T01:46:35;14.40;99.90
48860;DHT22;34679;51.436;-2.518;2022-09-09T01:49:02;14.40;99.90
48860;DHT22;34679;51.436;-2.518;2022-09-09T01:51:29;14.40;99.90
48860;DHT22;34679;51.436;-2.518;2022-09-09T01:53:55;14.30;99.90
48860;DHT22;34679;51.436;-2.518;2022-09-09T01:56:37;14.30;99.90
48860;DHT22;34679;51.436;-2.518;2022-09-09T01:59:37;14.20;99.90
48860;DHT22;34679;51.436;-2.518;2022-09-09T02:02:29;14.20;99.90
48860;DHT22;34679;51.436;-2.518;2022-09-09T02:05:17;14.20;99.90
48860;DHT22;34679;51.436;-2.518;2022-09-09T02:07:49;14.10;99.90
48860;DHT22;34679;51.436;-2.518;2022-09-09T02:10:22;14.20;99.90
48860;DHT22;34679;51.436;-2.518;2022-09-09T02:13:04;14.30;99.90
48860;DHT22;34679;51.436;-2.518;2022-09-09T02:16:12;14.30;99.90
48860;DHT22;34679;51.436;-2.518;2022-09-09T02:21:31;14.30;99.90
48860;DHT22;34679;51.436;-2.518;2022-09-09T02:24:01;14.40;99.90
48860;DHT22;34679;51.436;-2.518;2022-09-09T02:26:32;14.40;99.90
48860;DHT22;34679;51.436;-2.518;2022-09-09T02:28:59;14.30;99.90
48860;DHT22;34679;51.436;-2.518;2022-09-09T02:31:26;14.30;99.90
48860;DHT22;34679;51.436;-2.518;2022-09-09T02:33:58;14.40;99.90
48860;DHT22;34679;51.436;-2.518;2022-09-09T02:36:26;14.30;99.90
48860;DHT22;34679;51.436;-2.518;2022-09-09T02:38:52;14.30;99.90
48860;DHT22;34679;51.436;-2.518;2022-09-09T02:41:39;14.40;99.90
48860;DHT22;34679;51.436;-2.518;2022-09-09T02:44:14;14.40;99.90
48860;DHT22;34679;51.436;-2.518;2022-09-09T02:55:29;14.30;99.90
48860;DHT22;34679;51.436;-2.518;2022-09-09T02:58:02;14.30;99.90
48860;DHT22;34679;51.436;-2.518;2022-09-09T03:00:32;14.30;99.90
48860;DHT22;34679;51.436;-2.518;2022-09-09T03:02:58;14.30;99.90
48860;DHT22;34679;51.436;-2.518;2022-09-09T03:05:24;14.30;99.90
48860;DHT22;34679;51.436;-2.518;2022-09-09T03:07:51;14.30;99.90
48860;DHT22;34679;51.436;-2.518;2022-09-09T03:10:17;14.30;99.90
48860;DHT22;34679;51.436;-2.518;2022-09-09T03:12:43;14.30;99.90
48860;DHT22;34679;51.436;-2.518;2022-09-09T03:15:09;14.40;99.90
48860;DHT22;34679;51.436;-2.518;2022-09-09T03:17:35;14.40;99.90
48860;DHT22;34679;51.436;-2.518;2022-09-09T03:20:05;14.40;99.90
48860;DHT22;34679;51.436;-2.518;2022-09-09T03:22:30;14.40;99.90
48860;DHT22;34679;51.436;-2.518;2022-09-09T03:24:56;14.40;99.90
48860;DHT22;34679;51.436;-2.518;2022-09-09T03:27:22;14.40;99.90
48860;DHT22;34679;51.436;-2.518;2022-09-09T03:29:47;14.40;99.90
48860;DHT22;34679;51.436;-2.518;2022-09-09T03:32:16;14.40;99.90
48860;DHT22;34679;51.436;-2.518;2022-09-09T03:34:43;14.40;99.90
48860;DHT22;34679;51.436;-2.518;2022-09-09T03:37:10;14.40;99.90
48860;DHT22;34679;51.436;-2.518;2022-09-09T03:39:35;14.40;99.90
48860;DHT22;34679;51.436;-2.518;2022-09-09T03:42:01;14.40;99.90
48860;DHT22;34679;51.436;-2.518;2022-09-09T03:44:31;14.40;99.90
48860;DHT22;34679;51.436;-2.518;2022-09-09T03:46:57;14.40;99.90
48860;DHT22;34679;51.436;-2.518;2022-09-09T03:49:27;14.40;99.90
48860;DHT22;34679;51.436;-2.518;2022-09-09T03:51:56;14.40;99.90
48860;DHT22;34679;51.436;-2.518;2022-09-09T03:54:25;14.40;99.90
48860;DHT22;34679;51.436;-2.518;2022-09-09T03:56:51;14.50;99.90
48860;DHT22;34679;51.436;-2.518;2022-09-09T03:59:17;14.50;99.90
48860;DHT22;34679;51.436;-2.518;2022-09-09T04:01:43;14.50;99.90
48860;DHT22;34679;51.436;-2.518;2022-09-09T04:04:08;14.50;99.90
48860;DHT22;34679;51.436;-2.518;2022-09-09T04:06:35;14.50;99.90
48860;DHT22;34679;51.436;-2.518;2022-09-09T04:09:00;14.50;99.90
48860;DHT22;34679;51.436;-2.518;2022-09-09T04:11:28;14.50;99.90
48860;DHT22;34679;51.436;-2.518;2022-09-09T04:13:54;14.50;99.90
48860;DHT22;34679;51.436;-2.518;2022-09-09T04:16:20;14.50;99.90
48860;DHT22;34679;51.436;-2.518;2022-09-09T04:18:45;14.50;99.90
48860;DHT22;34679;51.436;-2.518;2022-09-09T04:21:11;14.50;99.90
48860;DHT22;34679;51.436;-2.518;2022-09-09T04:23:38;14.40;99.90
48860;DHT22;34679;51.436;-2.518;2022-09-09T04:26:05;14.40;99.90
48860;DHT22;34679;51.436;-2.518;2022-09-09T04:28:33;14.40;99.90
48860;DHT22;34679;51.436;-2.518;2022-09-09T04:31:13;14.40;99.90
48860;DHT22;34679;51.436;-2.518;2022-09-09T04:33:40;14.40;99.90
48860;DHT22;34679;51.436;-2.518;2022-09-09T04:36:06;14.40;99.90
48860;DHT22;34679;51.436;-2.518;2022-09-09T04:38:32;14.40;99.90
48860;DHT22;34679;51.436;-2.518;2022-09-09T04:40:57;14.50;99.90
48860;DHT22;34679;51.436;-2.518;2022-09-09T04:43:24;14.40;99.90
48860;DHT22;34679;51.436;-2.518;2022-09-09T04:45:51;14.50;99.90
48860;DHT22;34679;51.436;-2.518;2022-09-09T04:48:17;14.50;99.90
48860;DHT22;34679;51.436;-2.518;2022-09-09T04:50:43;14.50;99.90
48860;DHT22;34679;51.436;-2.518;2022-09-09T04:53:09;14.50;99.90
48860;DHT22;34679;51.436;-2.518;2022-09-09T04:55:35;14.50;99.90
48860;DHT22;34679;51.436;-2.518;2022-09-09T04:58:05;14.50;99.90
48860;DHT22;34679;51.436;-2.518;2022-09-09T05:00:31;14.50;99.90
48860;DHT22;34679;51.436;-2.518;2022-09-09T05:02:57;14.50;99.90
48860;DHT22;34679;51.436;-2.518;2022-09-09T05:05:23;14.50;99.90
48860;DHT22;34679;51.436;-2.518;2022-09-09T05:07:49;14.40;99.90
48860;DHT22;34679;51.436;-2.518;2022-09-09T05:10:14;14.50;99.90
48860;DHT22;34679;51.436;-2.518;2022-09-09T05:12:41;14.50;99.90
48860;DHT22;34679;51.436;-2.518;2022-09-09T05:15:08;14.40;99.90
48860;DHT22;34679;51.436;-2.518;2022-09-09T05:17:34;14.40;99.90
48860;DHT22;34679;51.436;-2.518;2022-09-09T05:20:00;14.40;99.90
48860;DHT22;34679;51.436;-2.518;2022-09-09T05:22:28;14.50;99.90
48860;DHT22;34679;51.436;-2.518;2022-09-09T05:24:54;14.50;99.90
48860;DHT22;34679;51.436;-2.518;2022-09-09T05:27:19;14.50;99.90
48860;DHT22;34679;51.436;-2.518;2022-09-09T05:29:46;14.50;99.90
48860;DHT22;34679;51.436;-2.518;2022-09-09T05:32:12;14.50;99.90
48860;DHT22;34679;51.436;-2.518;2022-09-09T05:34:39;14.40;99.90
48860;DHT22;34679;51.436;-2.518;2022-09-09T05:37:05;14.50;99.90
48860;DHT22;34679;51.436;-2.518;2022-09-09T05:39:30;14.50;99.90
48860;DHT22;34679;51.436;-2.518;2022-09-09T05:41:58;14.50;99.90
48860;DHT22;34679;51.436;-2.518;2022-09-09T05:44:23;14.50;99.90
48860;DHT22;34679;51.436;-2.518;2022-09-09T05:46:53;14.50;99.90
48860;DHT22;34679;51.436;-2.518;2022-09-09T05:49:19;14.50;99.90
48860;DHT22;34679;51.436;-2.518;2022-09-09T05:51:45;14.40;99.90
48860;DHT22;34679;51.436;-2.518;2022-09-09T05:54:11;14.40;99.90
48860;DHT22;34679;51.436;-2.518;2022-09-09T05:56:40;14.40;99.90
48860;DHT22;34679;51.436;-2.518;2022-09-09T05:59:06;14.50;99.90
48860;DHT22;34679;51.436;-2.518;2022-09-09T06:01:34;14.50;99.90
48860;DHT22;34679;51.436;-2.518;2022-09-09T06:04:00;14.50;99.90
48860;DHT22;34679;51.436;-2.518;2022-09-09T06:06:36;14.70;99.90
48860;DHT22;34679;51.436;-2.518;2022-09-09T06:09:05;14.90;99.90
48860;DHT22;34679;51.436;-2.518;2022-09-09T06:11:34;14.90;99.90
48860;DHT22;34679;51.436;-2.518;2022-09-09T06:14:00;15.00;99.90
48860;DHT22;34679;51.436;-2.518;2022-09-09T06:16:27;15.10;99.90
48860;DHT22;34679;51.436;-2.518;2022-09-09T06:18:54;15.10;99.90
48860;DHT22;34679;51.436;-2.518;2022-09-09T06:21:28;15.10;99.90
48860;DHT22;34679;51.436;-2.518;2022-09-09T06:23:55;15.10;99.90
48860;DHT22;34679;51.436;-2.518;2022-09-09T06:26:26;15.10;99.90
48860;DHT22;34679;51.436;-2.518;2022-09-09T06:28:54;15.10;99.90
48860;DHT22;34679;51.436;-2.518;2022-09-09T06:31:22;15.10;99.90
48860;DHT22;34679;51.436;-2.518;2022-09-09T06:33:49;15.10;99.90
48860;DHT22;34679;51.436;-2.518;2022-09-09T06:36:21;15.10;99.90
48860;DHT22;34679;51.436;-2.518;2022-09-09T06:38:47;15.10;99.90
48860;DHT22;34679;51.436;-2.518;2022-09-09T06:41:15;15.10;99.90
48860;DHT22;34679;51.436;-2.518;2022-09-09T06:43:41;15.10;99.90
48860;DHT22;34679;51.436;-2.518;2022-09-09T06:46:16;15.20;99.90
48860;DHT22;34679;51.436;-2.518;2022-09-09T06:48:43;15.20;99.90
48860;DHT22;34679;51.436;-2.518;2022-09-09T06:51:16;15.20;99.90
48860;DHT22;34679;51.436;-2.518;2022-09-09T06:53:44;15.30;99.90
48860;DHT22;34679;51.436;-2.518;2022-09-09T06:58:37;15.50;99.90
48860;DHT22;34679;51.436;-2.518;2022-09-09T07:01:07;15.60;99.90
48860;DHT22;34679;51.436;-2.518;2022-09-09T07:03:32;15.50;99.90
48860;DHT22;34679;51.436;-2.518;2022-09-09T07:05:59;15.40;99.90
48860;DHT22;34679;51.436;-2.518;2022-09-09T07:08:25;15.40;99.90
48860;DHT22;34679;51.436;-2.518;2022-09-09T07:10:52;15.40;99.90
48860;DHT22;34679;51.436;-2.518;2022-09-09T07:13:26;15.40;99.90
48860;DHT22;34679;51.436;-2.518;2022-09-09T07:15:53;15.30;99.90
48860;DHT22;34679;51.436;-2.518;2022-09-09T07:18:19;15.40;99.90
48860;DHT22;34679;51.436;-2.518;2022-09-09T07:20:55;15.50;99.90
48860;DHT22;34679;51.436;-2.518;2022-09-09T07:23:21;15.50;99.90
48860;DHT22;34679;51.436;-2.518;2022-09-09T07:25:47;15.50;99.90
48860;DHT22;34679;51.436;-2.518;2022-09-09T07:28:13;15.50;99.90
48860;DHT22;34679;51.436;-2.518;2022-09-09T07:30:39;15.50;99.90
48860;DHT22;34679;51.436;-2.518;2022-09-09T07:33:06;15.60;99.90
48860;DHT22;34679;51.436;-2.518;2022-09-09T07:35:32;15.70;99.90
48860;DHT22;34679;51.436;-2.518;2022-09-09T07:37:57;16.60;99.90
48860;DHT22;34679;51.436;-2.518;2022-09-09T07:40:24;18.20;99.90
48860;DHT22;34679;51.436;-2.518;2022-09-09T07:42:50;19.40;99.90
48860;DHT22;34679;51.436;-2.518;2022-09-09T07:45:15;20.70;99.90
48860;DHT22;34679;51.436;-2.518;2022-09-09T07:47:41;21.50;99.90
48860;DHT22;34679;51.436;-2.518;2022-09-09T07:50:09;22.40;99.90
48860;DHT22;34679;51.436;-2.518;2022-09-09T07:52:35;23.40;99.90
48860;DHT22;34679;51.436;-2.518;2022-09-09T07:55:01;23.50;99.90
48860;DHT22;34679;51.436;-2.518;2022-09-09T07:57:28;21.90;99.90
48860;DHT22;34679;51.436;-2.518;2022-09-09T07:59:56;21.40;99.90
48860;DHT22;34679;51.436;-2.518;2022-09-09T08:02:23;20.80;99.90
48860;DHT22;34679;51.436;-2.518;2022-09-09T08:04:49;21.00;99.90
48860;DHT22;34679;51.436;-2.518;2022-09-09T08:07:15;20.50;99.90
48860;DHT22;34679;51.436;-2.518;2022-09-09T08:09:41;19.40;99.90
48860;DHT22;34679;51.436;-2.518;2022-09-09T08:12:07;19.30;99.90
48860;DHT22;34679;51.436;-2.518;2022-09-09T08:14:33;19.20;99.90
48860;DHT22;34679;51.436;-2.518;2022-09-09T08:16:59;18.90;99.90
48860;DHT22;34679;51.436;-2.518;2022-09-09T08:19:25;18.90;99.90
48860;DHT22;34679;51.436;-2.518;2022-09-09T08:21:50;18.80;99.90
48860;DHT22;34679;51.436;-2.518;2022-09-09T08:24:16;19.30;99.90
48860;DHT22;34679;51.436;-2.518;2022-09-09T08:26:44;19.60;99.90
48860;DHT22;34679;51.436;-2.518;2022-09-09T08:29:12;19.60;99.90
48860;DHT22;34679;51.436;-2.518;2022-09-09T08:31:41;18.60;99.90
48860;DHT22;34679;51.436;-2.518;2022-09-09T08:34:08;18.20;99.90
48860;DHT22;34679;51.436;-2.518;2022-09-09T08:36:37;18.20;99.90
48860;DHT22;34679;51.436;-2.518;2022-09-09T08:39:05;18.10;99.90
48860;DHT22;34679;51.436;-2.518;2022-09-09T08:44:26;17.80;99.90
48860;DHT22;34679;51.436;-2.518;2022-09-09T08:55:42;17.10;99.90
48860;DHT22;34679;51.436;-2.518;2022-09-09T08:58:32;17.10;99.90
48860;DHT22;34679;51.436;-2.518;2022-09-09T09:01:17;17.00;99.90
48860;DHT22;34679;51.436;-2.518;2022-09-09T09:09:16;16.90;99.90
48860;DHT22;34679;51.436;-2.518;2022-09-09T09:14:23;17.10;99.90
48860;DHT22;34679;51.436;-2.518;2022-09-09T09:16:59;17.10;99.90
48860;DHT22;34679;51.436;-2.518;2022-09-09T09:19:27;17.30;99.90
48860;DHT22;34679;51.436;-2.518;2022-09-09T09:22:02;17.50;99.90
48860;DHT22;34679;51.436;-2.518;2022-09-09T09:24:44;17.60;99.90
48860;DHT22;34679;51.436;-2.518;2022-09-09T09:27:18;17.40;99.90
48860;DHT22;34679;51.436;-2.518;2022-09-09T09:29:48;17.40;99.90
48860;DHT22;34679;51.436;-2.518;2022-09-09T09:32:18;17.30;99.90
48860;DHT22;34679;51.436;-2.518;2022-09-09T09:34:51;17.20;99.90
48860;DHT22;34679;51.436;-2.518;2022-09-09T09:37:25;17.00;99.90
48860;DHT22;34679;51.436;-2.518;2022-09-09T09:39:53;17.00;99.90
48860;DHT22;34679;51.436;-2.518;2022-09-09T09:42:19;17.00;99.90
48860;DHT22;34679;51.436;-2.518;2022-09-09T09:44:45;16.80;99.90
48860;DHT22;34679;51.436;-2.518;2022-09-09T09:47:19;16.80;99.90
48860;DHT22;34679;51.436;-2.518;2022-09-09T09:49:53;16.80;99.90
48860;DHT22;34679;51.436;-2.518;2022-09-09T09:52:23;16.70;99.90
48860;DHT22;34679;51.436;-2.518;2022-09-09T09:54:50;16.70;99.90
48860;DHT22;34679;51.436;-2.518;2022-09-09T09:57:18;16.60;99.90
48860;DHT22;34679;51.436;-2.518;2022-09-09T09:59:45;16.60;99.90
48860;DHT22;34679;51.436;-2.518;2022-09-09T10:02:21;16.40;99.90
48860;DHT22;34679;51.436;-2.518;2022-09-09T10:05:01;16.40;99.90
48860;DHT22;34679;51.436;-2.518;2022-09-09T10:07:27;16.40;99.90
48860;DHT22;34679;51.436;-2.518;2022-09-09T10:09:56;16.50;99.90
48860;DHT22;34679;51.436;-2.518;2022-09-09T10:12:51;16.60;99.90
48860;DHT22;34679;51.436;-2.518;2022-09-09T10:18:16;16.70;99.90
48860;DHT22;34679;51.436;-2.518;2022-09-09T10:21:36;16.50;99.90
48860;DHT22;34679;51.436;-2.518;2022-09-09T10:24:13;16.60;99.90
48860;DHT22;34679;51.436;-2.518;2022-09-09T10:26:59;16.70;99.90
48860;DHT22;34679;51.436;-2.518;2022-09-09T10:40:20;17.10;99.90
48860;DHT22;34679;51.436;-2.518;2022-09-09T10:42:53;17.10;99.90
48860;DHT22;34679;51.436;-2.518;2022-09-09T10:45:32;17.20;99.90
48860;DHT22;34679;51.436;-2.518;2022-09-09T10:54:05;16.90;99.90
48860;DHT22;34679;51.436;-2.518;2022-09-09T10:56:37;16.80;99.90
48860;DHT22;34679;51.436;-2.518;2022-09-09T10:59:29;17.00;99.90
48860;DHT22;34679;51.436;-2.518;2022-09-09T11:02:10;17.20;99.90
48860;DHT22;34679;51.436;-2.518;2022-09-09T11:04:42;17.50;99.90
48860;DHT22;34679;51.436;-2.518;2022-09-09T11:07:16;17.90;99.90
48860;DHT22;34679;51.436;-2.518;2022-09-09T11:09:53;17.90;99.90
48860;DHT22;34679;51.436;-2.518;2022-09-09T11:12:21;18.50;99.90
48860;DHT22;34679;51.436;-2.518;2022-09-09T11:14:57;19.00;99.90
48860;DHT22;34679;51.436;-2.518;2022-09-09T11:17:39;19.60;99.90
48860;DHT22;34679;51.436;-2.518;2022-09-09T11:20:10;19.10;99.90
48860;DHT22;34679;51.436;-2.518;2022-09-09T11:22:53;19.30;99.90
48860;DHT22;34679;51.436;-2.518;2022-09-09T11:28:17;19.50;99.90
48860;DHT22;34679;51.436;-2.518;2022-09-09T11:42:15;20.80;99.90
48860;DHT22;34679;51.436;-2.518;2022-09-09T11:44:42;20.60;99.90
48860;DHT22;34679;51.436;-2.518;2022-09-09T11:47:29;20.30;99.90
48860;DHT22;34679;51.436;-2.518;2022-09-09T11:52:45;20.00;99.90
48860;DHT22;34679;51.436;-2.518;2022-09-09T11:55:33;20.10;99.90
48860;DHT22;34679;51.436;-2.518;2022-09-09T11:58:00;20.10;99.90
48860;DHT22;34679;51.436;-2.518;2022-09-09T12:00:39;19.60;99.90
48860;DHT22;34679;51.436;-2.518;2022-09-09T12:03:46;19.80;99.90
48860;DHT22;34679;51.436;-2.518;2022-09-09T12:06:29;19.80;99.90
48860;DHT22;34679;51.436;-2.518;2022-09-09T12:11:51;20.10;99.90
48860;DHT22;34679;51.436;-2.518;2022-09-09T12:17:20;20.20;99.90
48860;DHT22;34679;51.436;-2.518;2022-09-09T12:19:46;20.60;99.90
48860;DHT22;34679;51.436;-2.518;2022-09-09T12:22:20;20.80;99.90
48860;DHT22;34679;51.436;-2.518;2022-09-09T12:24:58;20.50;99.90
48860;DHT22;34679;51.436;-2.518;2022-09-09T12:27:34;20.70;99.90
48860;DHT22;34679;51.436;-2.518;2022-09-09T12:30:15;20.80;99.90
48860;DHT22;34679;51.436;-2.518;2022-09-09T12:32:41;20.90;99.90
48860;DHT22;34679;51.436;-2.518;2022-09-09T12:35:13;21.20;99.90
48860;DHT22;34679;51.436;-2.518;2022-09-09T12:40:32;20.90;99.90
48860;DHT22;34679;51.436;-2.518;2022-09-09T12:43:01;20.90;99.90
48860;DHT22;34679;51.436;-2.518;2022-09-09T12:45:30;20.70;99.90
48860;DHT22;34679;51.436;-2.518;2022-09-09T12:48:10;20.80;99.90
48860;DHT22;34679;51.436;-2.518;2022-09-09T12:50:59;20.50;99.90
48860;DHT22;34679;51.436;-2.518;2022-09-09T12:53:32;20.20;99.90
48860;DHT22;34679;51.436;-2.518;2022-09-09T12:56:03;19.90;99.90
48860;DHT22;34679;51.436;-2.518;2022-09-09T12:58:30;19.50;99.90
48860;DHT22;34679;51.436;-2.518;2022-09-09T13:01:01;19.40;99.90
48860;DHT22;34679;51.436;-2.518;2022-09-09T13:03:28;19.20;99.90
48860;DHT22;34679;51.436;-2.518;2022-09-09T13:05:58;19.00;99.90
48860;DHT22;34679;51.436;-2.518;2022-09-09T13:08:25;18.90;99.90
48860;DHT22;34679;51.436;-2.518;2022-09-09T13:11:04;18.80;99.90
48860;DHT22;34679;51.436;-2.518;2022-09-09T13:13:38;18.80;99.90
48860;DHT22;34679;51.436;-2.518;2022-09-09T13:16:17;18.90;99.90
48860;DHT22;34679;51.436;-2.518;2022-09-09T13:18:43;18.90;99.90
48860;DHT22;34679;51.436;-2.518;2022-09-09T13:21:09;18.90;99.90
48860;DHT22;34679;51.436;-2.518;2022-09-09T13:23:37;18.80;99.90
48860;DHT22;34679;51.436;-2.518;2022-09-09T13:26:05;18.70;99.90
48860;DHT22;34679;51.436;-2.518;2022-09-09T13:28:33;19.00;99.90
48860;DHT22;34679;51.436;-2.518;2022-09-09T13:31:05;19.10;99.90
48860;DHT22;34679;51.436;-2.518;2022-09-09T13:36:02;19.80;99.90
48860;DHT22;34679;51.436;-2.518;2022-09-09T13:38:32;19.90;99.90
48860;DHT22;34679;51.436;-2.518;2022-09-09T13:41:00;20.10;99.90
48860;DHT22;34679;51.436;-2.518;2022-09-09T13:43:50;20.40;99.90
48860;DHT22;34679;51.436;-2.518;2022-09-09T13:49:23;20.30;99.90
48860;DHT22;34679;51.436;-2.518;2022-09-09T13:52:01;20.40;99.90
48860;DHT22;34679;51.436;-2.518;2022-09-09T13:54:28;20.80;99.90
48860;DHT22;34679;51.436;-2.518;2022-09-09T13:56:55;20.90;99.90
48860;DHT22;34679;51.436;-2.518;2022-09-09T13:59:21;20.30;99.90
48860;DHT22;34679;51.436;-2.518;2022-09-09T14:01:47;20.10;99.90
48860;DHT22;34679;51.436;-2.518;2022-09-09T14:04:14;20.10;99.90
48860;DHT22;34679;51.436;-2.518;2022-09-09T14:06:42;20.30;99.90
48860;DHT22;34679;51.436;-2.518;2022-09-09T14:09:12;20.40;99.90
48860;DHT22;34679;51.436;-2.518;2022-09-09T14:11:38;20.60;99.90
48860;DHT22;34679;51.436;-2.518;2022-09-09T14:14:04;20.30;99.90
48860;DHT22;34679;51.436;-2.518;2022-09-09T14:16:30;20.20;99.90
48860;DHT22;34679;51.436;-2.518;2022-09-09T14:18:56;20.10;99.90
48860;DHT22;34679;51.436;-2.518;2022-09-09T14:21:23;20.20;99.90
48860;DHT22;34679;51.436;-2.518;2022-09-09T14:23:49;20.20;99.90
48860;DHT22;34679;51.436;-2.518;2022-09-09T14:26:15;20.50;99.90
48860;DHT22;34679;51.436;-2.518;2022-09-09T14:28:40;20.60;99.90
48860;DHT22;34679;51.436;-2.518;2022-09-09T14:31:07;20.60;99.90
48860;DHT22;34679;51.436;-2.518;2022-09-09T14:33:33;20.20;99.90
48860;DHT22;34679;51.436;-2.518;2022-09-09T14:36:00;20.30;99.90
48860;DHT22;34679;51.436;-2.518;2022-09-09T14:38:33;20.10;99.90
48860;DHT22;34679;51.436;-2.518;2022-09-09T14:41:00;20.00;99.90
48860;DHT22;34679;51.436;-2.518;2022-09-09T14:43:29;20.00;99.90
48860;DHT22;34679;51.436;-2.518;2022-09-09T14:45:57;19.90;99.90
48860;DHT22;34679;51.436;-2.518;2022-09-09T14:48:23;20.10;99.90
48860;DHT22;34679;51.436;-2.518;2022-09-09T14:50:48;19.90;99.90
48860;DHT22;34679;51.436;-2.518;2022-09-09T14:53:16;19.80;99.90
48860;DHT22;34679;51.436;-2.518;2022-09-09T14:55:42;19.80;99.90
48860;DHT22;34679;51.436;-2.518;2022-09-09T14:58:08;19.90;99.90
48860;DHT22;34679;51.436;-2.518;2022-09-09T15:00:33;19.90;99.90
48860;DHT22;34679;51.436;-2.518;2022-09-09T15:02:59;20.00;99.90
48860;DHT22;34679;51.436;-2.518;2022-09-09T15:05:25;20.10;99.90
48860;DHT22;34679;51.436;-2.518;2022-09-09T15:07:51;20.00;99.90
48860;DHT22;34679;51.436;-2.518;2022-09-09T15:10:16;19.90;99.90
48860;DHT22;34679;51.436;-2.518;2022-09-09T15:12:45;19.50;99.90
48860;DHT22;34679;51.436;-2.518;2022-09-09T15:15:11;19.30;99.90
48860;DHT22;34679;51.436;-2.518;2022-09-09T15:17:38;19.30;99.90
48860;DHT22;34679;51.436;-2.518;2022-09-09T15:20:04;19.30;99.90
48860;DHT22;34679;51.436;-2.518;2022-09-09T15:22:31;19.30;99.90
48860;DHT22;34679;51.436;-2.518;2022-09-09T15:24:57;19.40;99.90
48860;DHT22;34679;51.436;-2.518;2022-09-09T15:27:23;19.30;99.90
48860;DHT22;34679;51.436;-2.518;2022-09-09T15:29:49;19.30;99.90
48860;DHT22;34679;51.436;-2.518;2022-09-09T15:32:15;19.50;99.90
48860;DHT22;34679;51.436;-2.518;2022-09-09T15:34:41;19.60;99.90
48860;DHT22;34679;51.436;-2.518;2022-09-09T15:37:10;19.80;99.90
48860;DHT22;34679;51.436;-2.518;2022-09-09T15:39:37;19.50;99.90
48860;DHT22;34679;51.436;-2.518;2022-09-09T15:42:03;19.70;99.90
48860;DHT22;34679;51.436;-2.518;2022-09-09T15:44:28;19.80;99.90
48860;DHT22;34679;51.436;-2.518;2022-09-09T15:46:54;20.00;99.90
48860;DHT22;34679;51.436;-2.518;2022-09-09T15:49:24;20.00;99.90
48860;DHT22;34679;51.436;-2.518;2022-09-09T15:51:56;19.70;99.90
48860;DHT22;34679;51.436;-2.518;2022-09-09T15:54:23;19.80;99.90
48860;DHT22;34679;51.436;-2.518;2022-09-09T15:56:57;19.80;99.90
48860;DHT22;34679;51.436;-2.518;2022-09-09T15:59:24;19.70;99.90
48860;DHT22;34679;51.436;-2.518;2022-09-09T16:01:50;19.70;99.90
48860;DHT22;34679;51.436;-2.518;2022-09-09T16:04:20;19.90;99.90
48860;DHT22;34679;51.436;-2.518;2022-09-09T16:07:00;19.70;99.90
48860;DHT22;34679;51.436;-2.518;2022-09-09T16:09:26;19.60;99.90
48860;DHT22;34679;51.436;-2.518;2022-09-09T16:11:52;19.60;99.90
48860;DHT22;34679;51.436;-2.518;2022-09-09T16:14:19;19.40;99.90
48860;DHT22;34679;51.436;-2.518;2022-09-09T16:16:45;19.10;99.90
48860;DHT22;34679;51.436;-2.518;2022-09-09T16:19:12;19.10;99.90
48860;DHT22;34679;51.436;-2.518;2022-09-09T16:21:48;18.70;99.90
48860;DHT22;34679;51.436;-2.518;2022-09-09T16:24:16;18.70;99.90
48860;DHT22;34679;51.436;-2.518;2022-09-09T16:26:51;18.60;99.90
48860;DHT22;34679;51.436;-2.518;2022-09-09T16:29:18;18.60;99.90
48860;DHT22;34679;51.436;-2.518;2022-09-09T16:31:45;18.70;99.90
48860;DHT22;34679;51.436;-2.518;2022-09-09T16:34:12;18.90;99.90
48860;DHT22;34679;51.436;-2.518;2022-09-09T16:36:40;19.10;99.90
48860;DHT22;34679;51.436;-2.518;2022-09-09T16:39:10;19.10;99.90
48860;DHT22;34679;51.436;-2.518;2022-09-09T16:41:37;19.20;99.90
48860;DHT22;34679;51.436;-2.518;2022-09-09T16:44:06;19.30;99.90
48860;DHT22;34679;51.436;-2.518;2022-09-09T16:46:34;19.30;99.90
48860;DHT22;34679;51.436;-2.518;2022-09-09T16:49:02;19.30;99.90
48860;DHT22;34679;51.436;-2.518;2022-09-09T16:51:50;19.20;99.90
48860;DHT22;34679;51.436;-2.518;2022-09-09T16:54:18;19.10;99.90
48860;DHT22;34679;51.436;-2.518;2022-09-09T16:56:46;19.00;99.90
48860;DHT22;34679;51.436;-2.518;2022-09-09T16:59:14;18.90;99.90
48860;DHT22;34679;51.436;-2.518;2022-09-09T17:01:42;18.90;99.90
48860;DHT22;34679;51.436;-2.518;2022-09-09T17:04:14;18.90;99.90
48860;DHT22;34679;51.436;-2.518;2022-09-09T17:06:41;18.80;99.90
48860;DHT22;34679;51.436;-2.518;2022-09-09T17:09:11;18.70;99.90
48860;DHT22;34679;51.436;-2.518;2022-09-09T17:11:39;18.70;99.90
48860;DHT22;34679;51.436;-2.518;2022-09-09T17:14:07;18.70;99.90
48860;DHT22;34679;51.436;-2.518;2022-09-09T17:16:33;18.70;99.90
48860;DHT22;34679;51.436;-2.518;2022-09-09T17:18:59;18.60;99.90
48860;DHT22;34679;51.436;-2.518;2022-09-09T17:21:27;18.60;99.90
48860;DHT22;34679;51.436;-2.518;2022-09-09T17:23:54;18.70;99.90
48860;DHT22;34679;51.436;-2.518;2022-09-09T17:26:22;18.60;99.90
48860;DHT22;34679;51.436;-2.518;2022-09-09T17:28:48;18.60;99.90